WMKP/PEN METAR and TAF weather

Enter ICAO airport designator
Station Type Date Time Source
WMKP METAR 2022/01/29 13:00 UTC NOAA

WMKP 291300Z 00000KT 7000 FEW025 29/25 Q1009 NOSIG


Station Type Date Time Source
WMKP Decoded METAR 2022/01/29 13:00 UTC NOAA

Penang / Bayan Lepas, Malaysia (WMKP) 05-18N 100-16E 4M
Jan 29, 2022 - 08:00 AM EST / 2022.01.29 1300 UTC
Wind: Calm:0
Visibility: 4 mile(s):0
Sky conditions: mostly clear
Temperature: 84 F (29 C)
Dew Point: 77 F (25 C)
Relative Humidity: 79%
Pressure (altimeter): 29.80 in. Hg (1009 hPa)
ob: WMKP 291300Z 00000KT 7000 FEW025 29/25 Q1009 NOSIG
cycle: 13

Station Type Date Time Source
WMKP TAF 2022/01/29 12:13 UTC NOAA

TAF WMKP 291100Z 2912/3012 00000KT 8000 FEW025
BECMG 3004/3006 00000KT FEW020

Example: see airport list